createdAt,value
2023-05-10T00:00:56.028Z,3.90
2023-05-10T00:02:03.450Z,4.00
2023-05-10T00:03:10.459Z,3.80
2023-05-10T00:04:17.280Z,3.40
2023-05-10T00:05:24.159Z,3.30
2023-05-10T00:06:31.357Z,3.00
2023-05-10T00:07:38.496Z,3.20
2023-05-10T00:08:45.329Z,3.00
2023-05-10T00:09:52.229Z,3.40
2023-05-10T00:10:59.109Z,2.90
2023-05-10T00:12:05.988Z,2.50
2023-05-10T00:13:13.153Z,2.50
2023-05-10T00:14:20.624Z,2.70
2023-05-10T00:15:27.998Z,2.50
2023-05-10T00:16:34.607Z,1.60
2023-05-10T00:17:41.453Z,2.20
2023-05-10T00:18:48.222Z,1.60
2023-05-10T00:19:56.836Z,1.50
2023-05-10T00:21:03.532Z,2.10
2023-05-10T00:22:10.284Z,1.40
2023-05-10T00:23:17.127Z,1.40
2023-05-10T00:24:24.309Z,1.20
2023-05-10T00:25:32.223Z,1.50
2023-05-10T00:26:39.333Z,1.30
2023-05-10T00:27:46.718Z,1.30
2023-05-10T00:28:53.726Z,1.40
2023-05-10T00:30:00.902Z,1.10
2023-05-10T00:31:09.863Z,0.80
2023-05-10T00:32:17.249Z,0.90
2023-05-10T00:33:22.126Z,0.90
2023-05-10T00:34:29.278Z,1.80
2023-05-10T00:35:36.345Z,0.90
2023-05-10T00:36:43.128Z,0.80
2023-05-10T00:37:50.857Z,1.10
2023-05-10T00:38:57.583Z,0.80
2023-05-10T00:40:04.930Z,1.10
2023-05-10T00:41:12.328Z,0.70
2023-05-10T00:42:19.401Z,0.80
2023-05-10T00:43:26.387Z,0.80
2023-05-10T00:44:33.178Z,1.00
2023-05-10T00:45:40.445Z,0.60
2023-05-10T00:46:48.066Z,0.80
2023-05-10T00:47:57.373Z,0.80
2023-05-10T00:49:04.052Z,0.70
2023-05-10T00:50:11.581Z,1.90
2023-05-10T00:51:18.790Z,0.50
2023-05-10T00:52:26.175Z,0.30
2023-05-10T00:53:35.028Z,0.50
2023-05-10T00:54:42.034Z,0.70
2023-05-10T00:55:48.823Z,0.30
2023-05-10T00:56:55.740Z,0.40
2023-05-10T00:58:02.621Z,0.40
2023-05-10T00:59:11.244Z,0.60
2023-05-10T01:00:20.394Z,0.40
2023-05-10T01:01:27.639Z,0.50
2023-05-10T01:02:37.798Z,0.90
2023-05-10T01:03:45.500Z,1.50
2023-05-10T01:04:53.119Z,0.30
2023-05-10T01:06:00.874Z,0.70
2023-05-10T01:07:08.520Z,0.50
2023-05-10T01:08:15.242Z,0.60
2023-05-10T01:09:22.465Z,0.80
2023-05-10T01:10:29.405Z,0.70
2023-05-10T01:11:38.878Z,0.40
2023-05-10T01:12:47.366Z,0.60
2023-05-10T01:13:58.943Z,0.60
2023-05-10T01:15:08.474Z,0.40
2023-05-10T01:16:15.991Z,0.70
2023-05-10T01:17:24.728Z,0.40
2023-05-10T01:18:33.349Z,0.40
2023-05-10T01:19:41.654Z,0.60
2023-05-10T01:20:51.415Z,0.60
2023-05-10T01:22:38.626Z,0.70
2023-05-10T01:24:16.052Z,0.30
2023-05-10T01:26:02.842Z,0.50
2023-05-10T01:27:38.590Z,0.80
2023-05-10T01:29:21.590Z,1.00
2023-05-10T01:31:07.968Z,0.50
2023-05-10T01:32:23.926Z,0.40
2023-05-10T01:34:02.620Z,0.50
2023-05-10T01:35:17.439Z,0.60
2023-05-10T01:36:46.953Z,0.40
2023-05-10T01:38:06.993Z,0.40
2023-05-10T01:39:44.615Z,0.30
2023-05-10T01:41:15.883Z,0.40
2023-05-10T01:42:30.975Z,0.80
2023-05-10T01:43:46.274Z,1.00
2023-05-10T01:45:11.484Z,0.50
2023-05-10T01:46:21.133Z,0.80
2023-05-10T01:48:51.423Z,0.60
2023-05-10T01:49:59.043Z,0.60
2023-05-10T01:51:06.203Z,0.40
2023-05-10T01:52:16.289Z,0.50
2023-05-10T01:53:23.075Z,0.50
2023-05-10T01:54:30.273Z,0.40
2023-05-10T01:55:42.301Z,0.50
2023-05-10T01:56:53.022Z,0.30
2023-05-10T01:58:07.714Z,0.40
2023-05-10T01:59:18.107Z,1.40
2023-05-10T02:00:26.042Z,0.50
2023-05-10T02:01:33.354Z,0.40
2023-05-10T02:02:42.943Z,1.30
2023-05-10T02:03:52.059Z,0.40
2023-05-10T02:05:00.380Z,0.70
2023-05-10T02:06:08.295Z,0.30
2023-05-10T02:07:15.627Z,1.30
2023-05-10T02:08:23.177Z,1.40
2023-05-10T02:09:31.733Z,1.20
2023-05-10T02:10:39.905Z,0.60
2023-05-10T02:11:49.660Z,0.30
2023-05-10T02:12:57.236Z,0.60
2023-05-10T02:14:05.664Z,0.50
2023-05-10T02:15:14.358Z,0.50
2023-05-10T02:16:21.764Z,0.60
2023-05-10T02:17:29.947Z,1.40
2023-05-10T02:18:39.062Z,0.60
2023-05-10T02:19:47.798Z,0.30
2023-05-10T02:20:55.675Z,0.40
2023-05-10T02:22:03.537Z,0.50
2023-05-10T02:23:12.821Z,0.60
2023-05-10T02:24:20.787Z,0.40
2023-05-10T02:25:28.013Z,0.60
2023-05-10T02:26:35.465Z,0.40
2023-05-10T02:27:44.032Z,0.50
2023-05-10T02:28:51.188Z,0.40
2023-05-10T02:29:58.670Z,0.40
2023-05-10T02:31:05.902Z,0.30
2023-05-10T02:32:13.258Z,1.20
2023-05-10T02:33:20.075Z,0.30
2023-05-10T02:34:29.354Z,0.50
2023-05-10T02:35:35.952Z,0.60
2023-05-10T02:36:45.900Z,0.50
2023-05-10T02:37:52.871Z,0.40
2023-05-10T02:39:00.428Z,0.90
2023-05-10T02:40:08.027Z,0.60
2023-05-10T02:41:15.004Z,0.70
2023-05-10T02:42:29.392Z,0.30
2023-05-10T02:44:45.310Z,0.40
2023-05-10T02:45:52.687Z,1.20
2023-05-10T02:47:00.916Z,1.20
2023-05-10T02:48:08.559Z,0.40
2023-05-10T02:49:15.695Z,0.40
2023-05-10T02:50:25.851Z,0.40
2023-05-10T02:51:35.227Z,0.50
2023-05-10T02:52:51.142Z,0.30
2023-05-10T02:53:58.245Z,0.50
2023-05-10T02:55:06.689Z,0.60
2023-05-10T02:56:23.935Z,0.30
2023-05-10T02:57:35.615Z,0.50
2023-05-10T02:58:43.757Z,0.60
2023-05-10T02:59:51.162Z,0.20
2023-05-10T03:00:58.121Z,0.50
2023-05-10T03:02:05.513Z,0.40
2023-05-10T03:03:12.476Z,0.30
2023-05-10T03:04:19.668Z,0.30
2023-05-10T03:05:26.731Z,0.40
2023-05-10T03:06:35.155Z,0.60
2023-05-10T03:07:42.696Z,0.30
2023-05-10T03:08:51.769Z,0.40
2023-05-10T03:10:00.259Z,0.30
2023-05-10T03:11:32.141Z,0.50
2023-05-10T03:13:10.551Z,0.50
2023-05-10T03:14:43.598Z,0.60
2023-05-10T03:16:18.372Z,0.30
2023-05-10T03:17:55.967Z,0.50
2023-05-10T03:19:28.092Z,1.50
2023-05-10T03:20:39.690Z,0.40
2023-05-10T03:21:50.247Z,0.60
2023-05-10T03:23:03.797Z,0.50
2023-05-10T03:24:14.194Z,0.40
2023-05-10T03:25:22.050Z,0.40
2023-05-10T03:26:30.291Z,0.30
2023-05-10T03:27:44.312Z,1.20
2023-05-10T03:28:50.886Z,0.40
2023-05-10T03:29:57.959Z,0.30
2023-05-10T03:31:08.561Z,0.40
2023-05-10T03:32:15.348Z,0.40
2023-05-10T03:33:22.352Z,0.40
2023-05-10T03:34:32.671Z,0.30
2023-05-10T03:35:43.545Z,0.30
2023-05-10T03:36:51.618Z,1.40
2023-05-10T03:37:59.421Z,0.40
2023-05-10T03:39:06.927Z,1.20
2023-05-10T03:40:17.700Z,0.30
2023-05-10T03:41:26.723Z,0.20
2023-05-10T03:42:35.162Z,0.40
2023-05-10T03:43:44.285Z,0.30
2023-05-10T03:44:52.125Z,0.20
2023-05-10T03:46:00.004Z,0.50
2023-05-10T03:47:08.329Z,0.60
2023-05-10T03:48:19.000Z,1.20
2023-05-10T03:49:27.051Z,1.10
2023-05-10T03:50:33.848Z,0.20
2023-05-10T03:51:41.454Z,1.10
2023-05-10T03:52:48.833Z,1.10
2023-05-10T03:53:55.949Z,0.90
2023-05-10T03:55:02.729Z,0.40
2023-05-10T03:56:09.321Z,0.70
2023-05-10T03:57:16.151Z,0.60
2023-05-10T03:58:23.061Z,0.90
2023-05-10T03:59:33.510Z,0.40
2023-05-10T04:00:46.110Z,0.40
2023-05-10T04:01:54.291Z,1.00
2023-05-10T04:03:01.745Z,0.50
2023-05-10T04:04:10.579Z,0.40
2023-05-10T04:05:18.143Z,0.80
2023-05-10T04:06:25.797Z,0.30
2023-05-10T04:07:33.212Z,0.60
2023-05-10T04:08:41.627Z,1.20
2023-05-10T04:09:50.601Z,0.50
2023-05-10T04:11:07.474Z,0.50
2023-05-10T04:12:15.086Z,0.40
2023-05-10T04:13:21.913Z,0.50
2023-05-10T04:14:29.425Z,0.30
2023-05-10T04:15:37.872Z,0.40
2023-05-10T04:16:45.214Z,0.80
2023-05-10T04:17:52.604Z,1.30
2023-05-10T04:18:59.823Z,0.40
2023-05-10T04:20:07.956Z,1.10
2023-05-10T04:21:18.483Z,0.30
2023-05-10T04:22:26.764Z,1.20
2023-05-10T04:23:34.046Z,1.30
2023-05-10T04:24:41.828Z,0.40
2023-05-10T04:25:49.826Z,0.40
2023-05-10T04:26:58.562Z,1.30
2023-05-10T04:28:06.134Z,0.50
2023-05-10T04:29:13.240Z,0.50
2023-05-10T04:30:20.284Z,1.30
2023-05-10T04:31:29.189Z,0.50
2023-05-10T04:32:37.396Z,0.40
2023-05-10T04:33:44.861Z,1.20
2023-05-10T04:34:53.801Z,0.40
2023-05-10T04:36:00.556Z,0.40
2023-05-10T04:37:11.436Z,1.10
2023-05-10T04:38:18.898Z,0.60
2023-05-10T04:39:25.781Z,0.40
2023-05-10T04:40:34.652Z,0.60
2023-05-10T04:41:41.910Z,0.30
2023-05-10T04:42:49.883Z,0.50
2023-05-10T04:43:57.213Z,0.50
2023-05-10T04:45:05.696Z,0.20
2023-05-10T04:46:14.188Z,0.30
2023-05-10T04:47:21.154Z,0.90
2023-05-10T04:48:30.334Z,0.50
2023-05-10T04:49:38.470Z,0.30
2023-05-10T04:50:47.306Z,0.40
2023-05-10T04:51:54.264Z,0.60
2023-05-10T04:53:01.751Z,0.30
2023-05-10T04:54:08.617Z,0.30
2023-05-10T04:55:16.148Z,0.60
2023-05-10T04:56:24.035Z,0.40
2023-05-10T04:57:31.596Z,0.40
2023-05-10T04:58:38.555Z,0.20
2023-05-10T04:59:45.854Z,0.50
2023-05-10T05:00:52.803Z,0.20
2023-05-10T05:02:03.786Z,0.80
2023-05-10T05:03:11.672Z,0.50
2023-05-10T05:04:18.469Z,1.10
2023-05-10T05:05:25.870Z,0.20
2023-05-10T05:06:32.716Z,0.60
2023-05-10T05:07:40.737Z,0.50
2023-05-10T05:08:48.054Z,1.00
2023-05-10T05:09:56.401Z,0.20
2023-05-10T05:11:06.452Z,0.70
2023-05-10T05:12:16.382Z,0.40
2023-05-10T05:14:30.545Z,0.50
2023-05-10T05:15:37.510Z,0.30
2023-05-10T05:16:44.109Z,0.30
2023-05-10T05:17:50.899Z,0.40
2023-05-10T05:18:58.130Z,0.50
2023-05-10T05:20:09.120Z,0.50
2023-05-10T05:21:18.355Z,0.40
2023-05-10T05:22:30.715Z,0.40
2023-05-10T05:23:37.517Z,0.30
2023-05-10T05:24:44.344Z,0.30
2023-05-10T05:25:51.205Z,0.60
2023-05-10T05:26:58.790Z,0.30
2023-05-10T05:28:08.183Z,0.30
2023-05-10T05:29:16.095Z,0.50
2023-05-10T05:30:24.805Z,0.30
2023-05-10T05:31:32.995Z,0.30
2023-05-10T05:32:40.416Z,0.60
2023-05-10T05:33:47.812Z,0.60
2023-05-10T05:34:55.028Z,0.60
2023-05-10T05:36:03.799Z,0.40
2023-05-10T05:37:10.716Z,0.40
2023-05-10T05:38:17.722Z,0.50
2023-05-10T05:39:24.777Z,0.20
2023-05-10T05:40:32.954Z,0.40
2023-05-10T05:41:41.785Z,0.50
2023-05-10T05:42:49.590Z,1.10
2023-05-10T05:43:57.321Z,0.50
2023-05-10T05:45:04.929Z,0.40
2023-05-10T05:46:12.481Z,1.30
2023-05-10T05:47:20.392Z,0.50
2023-05-10T05:48:28.505Z,0.50
2023-05-10T05:49:36.417Z,0.40
2023-05-10T05:50:43.918Z,0.30
2023-05-10T05:51:52.756Z,0.60
2023-05-10T05:53:00.905Z,0.50
2023-05-10T05:54:09.393Z,0.30
2023-05-10T05:55:16.951Z,1.10
2023-05-10T05:56:26.742Z,0.30
2023-05-10T05:57:34.296Z,0.30
2023-05-10T05:58:41.420Z,0.50
2023-05-10T05:59:49.004Z,0.60
2023-05-10T06:00:56.981Z,0.30
2023-05-10T06:02:04.970Z,1.20
2023-05-10T06:03:12.845Z,0.30
2023-05-10T06:04:19.959Z,0.20
2023-05-10T06:05:27.406Z,0.40
2023-05-10T06:06:35.020Z,0.30
2023-05-10T06:07:44.128Z,0.20
2023-05-10T06:08:51.179Z,0.60
2023-05-10T06:09:58.506Z,0.60
2023-05-10T06:11:06.689Z,0.50
2023-05-10T06:12:14.451Z,0.50
2023-05-10T06:13:21.566Z,0.30
2023-05-10T06:14:29.702Z,0.60
2023-05-10T06:15:37.316Z,0.50
2023-05-10T06:16:45.265Z,0.50
2023-05-10T06:17:53.118Z,1.00
2023-05-10T06:19:00.838Z,0.40
2023-05-10T06:20:10.017Z,0.40
2023-05-10T06:21:18.645Z,0.40
2023-05-10T06:22:26.006Z,0.50
2023-05-10T06:23:33.473Z,0.20
2023-05-10T06:24:40.712Z,0.50
2023-05-10T06:25:48.570Z,0.50
2023-05-10T06:26:56.413Z,0.50
2023-05-10T06:28:04.255Z,0.30
2023-05-10T06:29:13.042Z,0.40
2023-05-10T06:30:21.735Z,0.20
2023-05-10T06:31:30.337Z,0.30
2023-05-10T06:32:38.177Z,0.40
2023-05-10T06:33:46.004Z,0.40
2023-05-10T06:34:53.709Z,0.40
2023-05-10T06:36:01.908Z,0.40
2023-05-10T06:37:09.189Z,0.40
2023-05-10T06:38:16.648Z,0.30
2023-05-10T06:39:24.862Z,0.30
2023-05-10T06:41:42.082Z,0.50
2023-05-10T06:42:49.990Z,0.50
2023-05-10T06:43:58.117Z,0.50
2023-05-10T06:45:06.809Z,0.60
2023-05-10T06:46:13.916Z,0.50
2023-05-10T06:47:21.102Z,1.30
2023-05-10T06:48:28.854Z,0.20
2023-05-10T06:49:36.704Z,1.10
2023-05-10T06:50:45.256Z,0.30
2023-05-10T06:51:52.027Z,1.00
2023-05-10T06:52:59.119Z,0.50
2023-05-10T06:54:05.901Z,0.20
2023-05-10T06:55:16.953Z,0.50
2023-05-10T06:56:24.074Z,0.40
2023-05-10T06:57:32.557Z,0.40
2023-05-10T06:58:39.979Z,0.70
2023-05-10T06:59:47.202Z,0.50
2023-05-10T07:00:54.630Z,0.60
2023-05-10T07:02:01.771Z,0.50
2023-05-10T07:03:09.444Z,0.40
2023-05-10T07:04:16.089Z,0.50
2023-05-10T07:05:23.182Z,1.10
2023-05-10T07:06:33.719Z,0.40
2023-05-10T07:07:40.844Z,0.60
2023-05-10T07:08:48.068Z,0.40
2023-05-10T07:09:55.096Z,0.30
2023-05-10T07:11:06.074Z,0.30
2023-05-10T07:12:15.323Z,0.60
2023-05-10T07:13:24.249Z,0.40
2023-05-10T07:14:31.846Z,0.40
2023-05-10T07:15:39.360Z,0.70
2023-05-10T07:16:47.884Z,0.40
2023-05-10T07:17:54.925Z,0.40
2023-05-10T07:19:02.870Z,1.00
2023-05-10T07:20:11.479Z,0.50
2023-05-10T07:21:18.645Z,0.50
2023-05-10T07:22:27.374Z,1.00
2023-05-10T07:23:35.637Z,0.50
2023-05-10T07:24:43.758Z,0.50
2023-05-10T07:25:53.408Z,0.30
2023-05-10T07:27:02.290Z,0.50
2023-05-10T07:28:10.738Z,0.30
2023-05-10T07:29:17.632Z,0.30
2023-05-10T07:30:24.924Z,0.60
2023-05-10T07:31:32.474Z,1.20
2023-05-10T07:32:40.696Z,0.50
2023-05-10T07:33:49.203Z,0.40
2023-05-10T07:34:56.916Z,1.10
2023-05-10T07:36:04.082Z,0.30
2023-05-10T07:37:12.341Z,0.30
2023-05-10T07:38:20.210Z,0.70
2023-05-10T07:39:28.559Z,1.20
2023-05-10T07:40:36.402Z,0.40
2023-05-10T07:41:44.358Z,0.50
2023-05-10T07:42:51.686Z,0.40
2023-05-10T07:44:00.368Z,0.40
2023-05-10T07:45:09.228Z,0.90
2023-05-10T07:46:17.204Z,0.30
2023-05-10T07:47:25.134Z,0.50
2023-05-10T07:48:33.930Z,1.20
2023-05-10T07:49:42.484Z,0.40
2023-05-10T07:50:50.821Z,0.50
2023-05-10T07:51:57.951Z,0.40
2023-05-10T07:53:04.702Z,0.50
2023-05-10T07:54:11.942Z,0.40
2023-05-10T07:55:19.796Z,0.40
2023-05-10T07:56:35.151Z,1.00
2023-05-10T07:57:43.740Z,0.30
2023-05-10T07:58:51.004Z,0.40
2023-05-10T07:59:59.422Z,0.40
2023-05-10T08:01:07.578Z,0.30
2023-05-10T08:02:15.316Z,0.30
2023-05-10T08:03:24.123Z,0.40
2023-05-10T08:04:32.024Z,0.40
2023-05-10T08:05:40.158Z,0.40
2023-05-10T08:06:48.408Z,0.40
2023-05-10T08:07:56.541Z,0.40
2023-05-10T08:09:03.594Z,0.60
2023-05-10T08:10:13.472Z,0.50
2023-05-10T08:11:22.643Z,0.30
2023-05-10T08:12:30.228Z,0.20
2023-05-10T08:13:37.842Z,0.30
2023-05-10T08:14:45.210Z,0.20
2023-05-10T08:15:55.418Z,0.30
2023-05-10T08:17:04.277Z,0.40
2023-05-10T08:18:11.088Z,0.20
2023-05-10T08:19:22.434Z,0.50
2023-05-10T08:20:30.362Z,0.30
2023-05-10T08:21:38.698Z,0.40
2023-05-10T08:22:48.925Z,0.30
2023-05-10T08:23:57.007Z,0.80
2023-05-10T08:25:05.143Z,0.50
2023-05-10T08:26:14.254Z,0.30
2023-05-10T08:27:21.536Z,0.40
2023-05-10T08:28:29.329Z,1.10
2023-05-10T08:29:48.902Z,0.20
2023-05-10T08:30:56.880Z,0.50
2023-05-10T08:32:03.766Z,0.50
2023-05-10T08:33:10.632Z,0.50
2023-05-10T08:34:18.066Z,0.40
2023-05-10T08:35:25.279Z,0.30
2023-05-10T08:36:32.471Z,0.60
2023-05-10T08:37:43.364Z,0.30
2023-05-10T08:38:55.835Z,0.40
2023-05-10T08:40:03.994Z,1.10
2023-05-10T08:41:11.238Z,1.00
2023-05-10T08:42:19.440Z,0.70
2023-05-10T08:43:28.196Z,0.50
2023-05-10T08:44:35.863Z,0.20
2023-05-10T08:45:43.827Z,0.50
2023-05-10T08:46:51.839Z,0.60
2023-05-10T08:47:59.291Z,0.30
2023-05-10T08:49:07.658Z,0.30
2023-05-10T08:50:16.812Z,1.00
2023-05-10T08:51:28.797Z,0.40
2023-05-10T08:52:36.462Z,0.20
2023-05-10T08:53:44.487Z,0.50
2023-05-10T08:54:51.608Z,0.60
2023-05-10T08:55:59.353Z,1.30
2023-05-10T08:57:06.323Z,0.30
2023-05-10T08:58:13.866Z,0.80
2023-05-10T08:59:20.642Z,0.40
2023-05-10T09:00:28.398Z,0.90
2023-05-10T09:01:36.864Z,0.50
2023-05-10T09:02:44.569Z,0.60
2023-05-10T09:03:51.526Z,0.50
2023-05-10T09:04:59.687Z,0.70
2023-05-10T09:06:07.731Z,0.40
2023-05-10T09:07:16.183Z,0.40
2023-05-10T09:08:23.042Z,0.40
2023-05-10T09:09:31.986Z,0.40
2023-05-10T09:10:39.985Z,1.10
2023-05-10T09:11:48.953Z,0.40
2023-05-10T09:12:59.077Z,0.30
2023-05-10T09:14:08.018Z,0.20
2023-05-10T09:15:17.812Z,0.50
2023-05-10T09:16:28.202Z,0.60
2023-05-10T09:17:36.758Z,0.40
2023-05-10T09:18:45.030Z,0.70
2023-05-10T09:19:52.339Z,0.60
2023-05-10T09:21:00.207Z,0.50
2023-05-10T09:22:07.267Z,0.40
2023-05-10T09:23:15.818Z,0.40
2023-05-10T09:24:22.646Z,0.40
2023-05-10T09:25:30.847Z,0.40
2023-05-10T09:26:39.607Z,0.30
2023-05-10T09:27:48.740Z,0.60
2023-05-10T09:28:59.133Z,0.30
2023-05-10T09:30:07.701Z,0.90
2023-05-10T09:31:14.970Z,0.30
2023-05-10T09:32:22.436Z,1.10
2023-05-10T09:33:30.051Z,0.50
2023-05-10T09:34:42.815Z,0.50
2023-05-10T09:35:50.639Z,0.30
2023-05-10T09:37:00.390Z,0.40
2023-05-10T09:38:09.523Z,1.30
2023-05-10T09:39:16.634Z,0.30
2023-05-10T09:40:25.408Z,0.50
2023-05-10T09:41:33.588Z,0.60
2023-05-10T09:42:41.833Z,0.40
2023-05-10T09:43:50.296Z,0.50
2023-05-10T09:45:00.796Z,0.50
2023-05-10T09:46:14.217Z,0.30
2023-05-10T09:47:21.824Z,0.40
2023-05-10T09:48:30.242Z,0.40
2023-05-10T09:49:37.752Z,0.40
2023-05-10T09:50:46.308Z,0.70
2023-05-10T09:52:06.999Z,0.40
2023-05-10T09:53:15.913Z,1.10
2023-05-10T09:54:23.584Z,0.40
2023-05-10T09:55:43.233Z,0.40
2023-05-10T09:56:50.455Z,0.50
2023-05-10T09:58:03.884Z,0.30
2023-05-10T09:59:13.246Z,0.30
2023-05-10T10:00:21.428Z,0.50
2023-05-10T10:01:33.861Z,0.40
2023-05-10T10:02:42.637Z,0.40
2023-05-10T10:03:51.177Z,0.40
2023-05-10T10:04:59.596Z,0.40
2023-05-10T10:06:15.847Z,0.30
2023-05-10T10:07:30.961Z,0.30
2023-05-10T10:08:39.014Z,0.50
2023-05-10T10:09:46.638Z,0.30
2023-05-10T10:10:54.230Z,1.40
2023-05-10T10:12:05.592Z,0.40
2023-05-10T10:13:13.999Z,0.50
2023-05-10T10:14:22.521Z,0.20
2023-05-10T10:15:30.926Z,0.40
2023-05-10T10:16:43.641Z,0.40
2023-05-10T10:18:00.159Z,0.80
2023-05-10T10:19:07.578Z,1.50
2023-05-10T10:20:16.012Z,0.70
2023-05-10T10:21:23.600Z,0.20
2023-05-10T10:22:31.522Z,0.50
2023-05-10T10:23:39.974Z,0.60
2023-05-10T10:24:47.759Z,0.50
2023-05-10T10:25:56.537Z,0.40
2023-05-10T10:27:23.382Z,0.60
2023-05-10T10:28:50.750Z,0.40
2023-05-10T10:30:24.585Z,0.40
2023-05-10T10:31:42.155Z,0.30
2023-05-10T10:33:27.822Z,0.50
2023-05-10T10:34:36.654Z,0.70
2023-05-10T10:35:45.771Z,0.40
2023-05-10T10:36:53.072Z,0.40
2023-05-10T10:38:01.793Z,0.40
2023-05-10T10:39:12.242Z,0.30
2023-05-10T10:40:36.703Z,0.30
2023-05-10T10:41:57.726Z,0.90
2023-05-10T10:43:30.172Z,0.40
2023-05-10T10:44:41.690Z,0.40
2023-05-10T10:46:10.548Z,0.30
2023-05-10T10:47:35.308Z,0.20
2023-05-10T10:48:44.161Z,0.30
2023-05-10T10:50:05.953Z,0.70
2023-05-10T10:51:13.600Z,0.30
2023-05-10T10:52:41.057Z,0.90
2023-05-10T10:53:49.440Z,0.30
2023-05-10T10:55:08.951Z,0.60
2023-05-10T10:56:21.507Z,0.30
2023-05-10T10:57:28.713Z,0.30
2023-05-10T10:58:36.836Z,1.00
2023-05-10T10:59:47.585Z,0.40
2023-05-10T11:00:54.487Z,0.60
2023-05-10T11:02:02.387Z,0.50
2023-05-10T11:03:21.528Z,0.30
2023-05-10T11:04:28.681Z,0.30
2023-05-10T11:05:40.067Z,0.40
2023-05-10T11:06:48.345Z,1.00
2023-05-10T11:07:57.429Z,0.90
2023-05-10T11:09:12.391Z,0.60
2023-05-10T11:10:23.184Z,1.10
2023-05-10T11:11:30.551Z,1.10
2023-05-10T11:12:38.397Z,0.90
2023-05-10T11:13:49.285Z,0.40
2023-05-10T11:15:01.131Z,0.50
2023-05-10T11:16:29.186Z,0.30
2023-05-10T11:17:37.797Z,0.40
2023-05-10T11:19:05.909Z,0.50
2023-05-10T11:20:13.966Z,0.50
2023-05-10T11:21:20.716Z,0.50
2023-05-10T11:22:28.626Z,0.60
2023-05-10T11:23:53.682Z,0.40
2023-05-10T11:25:01.794Z,0.70
2023-05-10T11:26:13.937Z,0.20
2023-05-10T11:27:21.096Z,0.40
2023-05-10T11:28:28.436Z,0.30
2023-05-10T11:29:35.105Z,0.50
2023-05-10T11:30:43.062Z,0.30
2023-05-10T11:31:50.475Z,0.30
2023-05-10T11:32:57.539Z,0.50
2023-05-10T11:34:04.613Z,0.50
2023-05-10T11:35:12.377Z,0.40
2023-05-10T11:36:21.433Z,0.50
2023-05-10T11:37:34.418Z,0.40
2023-05-10T11:38:42.567Z,0.50
2023-05-10T11:39:50.401Z,0.40
2023-05-10T11:40:58.514Z,0.40
2023-05-10T11:42:06.097Z,0.60
2023-05-10T11:43:14.241Z,0.50
2023-05-10T11:44:21.425Z,0.40
2023-05-10T11:45:28.640Z,0.60
2023-05-10T11:46:36.444Z,0.30
2023-05-10T11:47:45.344Z,0.50
2023-05-10T11:48:54.183Z,0.70
2023-05-10T11:50:02.245Z,1.10
2023-05-10T11:51:10.721Z,0.40
2023-05-10T11:52:17.679Z,0.40
2023-05-10T11:53:25.928Z,0.50
2023-05-10T11:54:34.250Z,0.50
2023-05-10T11:55:41.752Z,0.20
2023-05-10T11:56:49.235Z,0.50
2023-05-10T11:57:57.212Z,0.30
2023-05-10T11:59:05.466Z,0.60
2023-05-10T12:00:14.125Z,0.60
2023-05-10T12:01:23.274Z,0.60
2023-05-10T12:02:32.315Z,0.50
2023-05-10T12:03:39.990Z,0.50
2023-05-10T12:04:47.559Z,0.60
2023-05-10T12:05:54.482Z,0.60
2023-05-10T12:07:04.546Z,0.40
2023-05-10T12:08:18.997Z,0.40
2023-05-10T12:09:39.597Z,0.50
2023-05-10T12:10:50.248Z,0.50
2023-05-10T12:11:59.937Z,0.60
2023-05-10T12:13:08.372Z,0.40
2023-05-10T12:14:17.898Z,0.40
2023-05-10T12:15:26.617Z,0.30
2023-05-10T12:16:34.194Z,0.60
2023-05-10T12:17:43.509Z,0.30
2023-05-10T12:18:55.069Z,0.30
2023-05-10T12:20:18.953Z,0.60
2023-05-10T12:21:26.633Z,0.60
2023-05-10T12:22:37.637Z,0.50
2023-05-10T12:23:49.296Z,0.40
2023-05-10T12:24:56.195Z,0.40
2023-05-10T12:26:07.553Z,0.50
2023-05-10T12:28:35.266Z,0.40
2023-05-10T12:29:46.814Z,0.40
2023-05-10T12:30:55.722Z,1.30
2023-05-10T12:32:02.700Z,1.20
2023-05-10T12:33:13.906Z,0.60
2023-05-10T12:34:38.906Z,0.50
2023-05-10T12:35:52.527Z,1.60
2023-05-10T12:36:59.771Z,1.20
2023-05-10T12:38:36.082Z,1.20
2023-05-10T12:39:47.495Z,0.40
2023-05-10T12:40:54.723Z,0.40
2023-05-10T12:42:04.243Z,0.50
2023-05-10T12:43:30.415Z,0.30
2023-05-10T12:44:38.577Z,0.50
2023-05-10T12:45:50.705Z,0.80
2023-05-10T12:46:59.396Z,0.50
2023-05-10T12:48:07.935Z,0.60
2023-05-10T12:49:15.052Z,0.50
2023-05-10T12:50:21.971Z,0.40
2023-05-10T12:51:28.917Z,0.50
2023-05-10T12:52:36.363Z,0.30
2023-05-10T12:53:45.614Z,0.30
2023-05-10T12:54:55.001Z,0.40
2023-05-10T12:56:03.716Z,0.40
2023-05-10T12:57:11.692Z,0.50
2023-05-10T12:58:34.345Z,0.80
2023-05-10T12:59:42.974Z,0.50
2023-05-10T13:00:50.837Z,1.10
2023-05-10T13:01:59.233Z,0.50
2023-05-10T13:03:09.635Z,0.60
2023-05-10T13:04:16.721Z,1.00
2023-05-10T13:05:23.858Z,0.30
2023-05-10T13:06:32.112Z,0.30
2023-05-10T13:07:39.058Z,0.40
2023-05-10T13:08:45.924Z,0.50
2023-05-10T13:09:53.525Z,0.60
2023-05-10T13:11:01.000Z,0.50
2023-05-10T13:12:10.131Z,0.40
2023-05-10T13:13:18.555Z,0.60
2023-05-10T13:14:25.505Z,0.50
2023-05-10T13:15:33.004Z,0.50
2023-05-10T13:16:41.222Z,0.30
2023-05-10T13:17:49.000Z,0.60
2023-05-10T13:18:55.847Z,0.40
2023-05-10T13:20:03.014Z,0.40
2023-05-10T13:21:09.909Z,0.30
2023-05-10T13:22:25.654Z,0.30
2023-05-10T13:23:40.062Z,0.50
2023-05-10T13:24:49.028Z,1.00
2023-05-10T13:25:56.311Z,0.40
2023-05-10T13:27:03.572Z,0.50
2023-05-10T13:28:10.377Z,0.60
2023-05-10T13:29:20.097Z,0.30
2023-05-10T13:30:27.989Z,0.50
2023-05-10T13:31:36.177Z,1.30
2023-05-10T13:32:43.471Z,0.30
2023-05-10T13:33:52.091Z,0.40
2023-05-10T13:35:00.957Z,0.60
2023-05-10T13:36:10.105Z,0.40
2023-05-10T13:37:17.072Z,1.10
2023-05-10T13:38:24.330Z,0.30
2023-05-10T13:39:35.905Z,0.40
2023-05-10T13:40:43.647Z,0.30
2023-05-10T13:41:50.357Z,0.30
2023-05-10T13:42:57.501Z,0.20
2023-05-10T13:44:04.769Z,0.80
2023-05-10T13:45:14.748Z,0.20
2023-05-10T13:46:22.087Z,0.50
2023-05-10T13:47:30.026Z,0.30
2023-05-10T13:48:39.370Z,0.60
2023-05-10T13:50:53.461Z,0.30
2023-05-10T13:52:01.493Z,1.00
2023-05-10T13:53:08.357Z,0.40
2023-05-10T13:54:15.940Z,0.20
2023-05-10T13:55:23.173Z,0.50
2023-05-10T13:56:30.407Z,0.40
2023-05-10T13:57:38.264Z,0.30
2023-05-10T13:58:45.192Z,0.60
2023-05-10T13:59:57.718Z,0.30
2023-05-10T14:01:06.953Z,0.90
2023-05-10T14:02:15.801Z,0.30
2023-05-10T14:03:22.956Z,0.50
2023-05-10T14:04:30.988Z,0.50
2023-05-10T14:05:38.045Z,0.30
2023-05-10T14:06:44.607Z,0.40
2023-05-10T14:07:51.553Z,0.50
2023-05-10T14:08:58.774Z,0.50
2023-05-10T14:10:05.939Z,0.50
2023-05-10T14:11:12.957Z,0.40
2023-05-10T14:12:19.536Z,0.60
2023-05-10T14:13:27.120Z,0.40
2023-05-10T14:14:33.925Z,0.40
2023-05-10T14:15:43.365Z,0.20
2023-05-10T14:16:50.825Z,0.40
2023-05-10T14:17:57.673Z,0.60
2023-05-10T14:19:05.115Z,0.40
2023-05-10T14:20:12.797Z,0.30
2023-05-10T14:21:19.683Z,0.30
2023-05-10T14:22:26.577Z,1.10
2023-05-10T14:23:33.123Z,0.40
2023-05-10T14:24:40.638Z,0.30
2023-05-10T14:25:47.383Z,0.50
2023-05-10T14:26:56.169Z,0.30
2023-05-10T14:28:03.209Z,0.30
2023-05-10T14:29:12.273Z,0.50
2023-05-10T14:30:19.544Z,0.50
2023-05-10T14:31:27.793Z,0.30
2023-05-10T14:32:35.087Z,0.20
2023-05-10T14:33:42.203Z,0.20
2023-05-10T14:34:49.154Z,0.50
2023-05-10T14:35:59.676Z,0.40
2023-05-10T14:37:06.754Z,0.60
2023-05-10T14:38:13.333Z,1.30
2023-05-10T14:39:20.816Z,1.10
2023-05-10T14:40:28.573Z,0.70
2023-05-10T14:41:35.202Z,0.60
2023-05-10T14:42:42.082Z,0.50
2023-05-10T14:43:49.150Z,0.50
2023-05-10T14:44:55.896Z,0.60
2023-05-10T14:46:02.727Z,0.50
2023-05-10T14:47:10.593Z,0.30
2023-05-10T14:48:19.822Z,0.60
2023-05-10T14:49:28.205Z,0.40
2023-05-10T14:50:37.350Z,0.30
2023-05-10T14:51:44.578Z,1.30
2023-05-10T14:52:51.181Z,0.40
2023-05-10T14:54:01.646Z,0.50
2023-05-10T14:55:09.242Z,0.60
2023-05-10T14:56:16.364Z,0.70
2023-05-10T14:57:23.153Z,1.30
2023-05-10T14:58:31.016Z,0.90
2023-05-10T14:59:38.834Z,0.40
2023-05-10T15:00:46.586Z,0.30
2023-05-10T15:01:53.573Z,0.80
2023-05-10T15:03:00.758Z,0.50
2023-05-10T15:04:07.842Z,29.30
2023-05-10T15:05:15.088Z,135.90
2023-05-10T15:06:27.458Z,225.30
2023-05-10T15:07:34.316Z,228.90
2023-05-10T15:08:42.456Z,203.70
2023-05-10T15:09:49.945Z,182.20
2023-05-10T15:10:58.148Z,171.60
2023-05-10T15:12:05.468Z,152.90
2023-05-10T15:13:13.767Z,145.00
2023-05-10T15:14:21.444Z,128.90
2023-05-10T15:15:28.181Z,113.30
2023-05-10T15:16:36.385Z,104.80
2023-05-10T15:17:43.737Z,94.90
2023-05-10T15:18:50.830Z,127.90
2023-05-10T15:19:57.672Z,187.60
2023-05-10T15:21:04.607Z,237.40
2023-05-10T15:22:12.181Z,286.50
2023-05-10T15:23:19.240Z,323.20
2023-05-10T15:24:26.013Z,409.10
2023-05-10T15:25:32.804Z,474.60
2023-05-10T15:26:39.609Z,533.00
2023-05-10T15:27:46.898Z,479.30
2023-05-10T15:28:53.598Z,441.30
2023-05-10T15:30:01.634Z,425.10